Time;durP1;ratioP1;P1;durP2;ratioP2;P2;SDS_P1;SDS_P2;PMS_P1;PMS_P2;Temp;Humidity;BMP_temperature;BMP_pressure;BME280_temperature;BME280_humidity;BME280_pressure;Samples;Min_cycle;Max_cycle;Signal;HPM_P1;HPM_P2
2021/06/11 00:00:14;;;;;;;3.37;3.07;;;;;;;16.36;100.00;96288.69;5093831;28;20197;-83
2021/06/11 00:02:41;;;;;;;3.30;3.00;;;;;;;16.39;100.00;96290.13;5093769;28;20198;-83
2021/06/11 00:05:11;;;;;;;3.00;2.80;;;;;;;16.38;100.00;96289.31;5093507;28;20221;-84
2021/06/11 00:07:39;;;;;;;3.50;3.07;;;;;;;16.44;100.00;96281.59;5093867;28;20193;-84
2021/06/11 00:10:08;;;;;;;4.53;3.27;;;;;;;16.43;100.00;96287.91;5093494;28;20674;-83
2021/06/11 00:12:36;;;;;;;3.50;3.20;;;;;;;16.37;100.00;96287.66;5093466;28;20193;-83
2021/06/11 00:15:05;;;;;;;3.50;3.30;;;;;;;16.42;100.00;96281.78;5093458;28;20203;-83
2021/06/11 00:17:33;;;;;;;3.30;3.00;;;;;;;16.33;100.00;96294.38;5093577;28;20203;-83
2021/06/11 00:20:00;;;;;;;3.00;2.80;;;;;;;16.23;100.00;96304.50;5093217;28;20250;-84
2021/06/11 00:22:29;;;;;;;5.40;3.60;;;;;;;16.19;100.00;96305.91;5093545;28;20207;-83
2021/06/11 00:24:56;;;;;;;3.00;2.80;;;;;;;16.11;100.00;96300.75;5093283;28;20220;-84
2021/06/11 00:27:23;;;;;;;10.03;3.27;;;;;;;16.22;100.00;96294.09;5093372;28;20205;-83
2021/06/11 00:29:50;;;;;;;3.90;3.60;;;;;;;16.16;100.00;96299.16;5092903;28;20206;-84
2021/06/11 00:32:17;;;;;;;3.40;3.10;;;;;;;16.13;100.00;96298.72;5093320;28;20201;-83
2021/06/11 00:34:44;;;;;;;4.27;3.00;;;;;;;16.16;100.00;96285.88;5093151;28;20202;-84
2021/06/11 00:37:11;;;;;;;3.43;3.13;;;;;;;16.10;100.00;96284.00;5093304;28;20252;-84
2021/06/11 00:39:39;;;;;;;3.30;3.07;;;;;;;16.07;100.00;96281.75;5092773;28;20205;-84
2021/06/11 00:42:07;;;;;;;4.80;3.77;;;;;;;16.06;100.00;96284.59;5093241;28;20203;-83
2021/06/11 00:44:35;;;;;;;3.80;3.50;;;;;;;16.05;100.00;96272.34;5092863;28;20198;-84
2021/06/11 00:47:02;;;;;;;4.50;3.90;;;;;;;15.94;100.00;96286.94;5092880;28;20194;-84
2021/06/11 00:49:29;;;;;;;4.10;3.50;;;;;;;15.90;100.00;96281.22;5092121;28;20224;-83
2021/06/11 00:51:56;;;;;;;4.43;3.83;;;;;;;15.81;100.00;96281.53;5093010;28;20196;-84
2021/06/11 00:54:23;;;;;;;4.47;4.07;;;;;;;15.82;100.00;96276.03;5092433;28;20237;-84
2021/06/11 00:56:52;;;;;;;5.13;4.73;;;;;;;15.91;100.00;96266.94;5092571;28;20193;-84
2021/06/11 00:59:19;;;;;;;4.50;4.20;;;;;;;15.89;100.00;96266.31;5092523;28;20202;-84
2021/06/11 01:01:46;;;;;;;4.53;4.13;;;;;;;15.92;100.00;96255.31;5092785;28;20252;-84
2021/06/11 01:04:13;;;;;;;5.53;4.53;;;;;;;15.85;100.00;96262.41;5092451;28;20205;-83
2021/06/11 01:06:43;;;;;;;4.60;4.30;;;;;;;15.95;100.00;96255.97;5092506;28;20728;-83
2021/06/11 01:09:10;;;;;;;4.57;4.27;;;;;;;15.90;100.00;96251.25;5092550;28;20210;-83
2021/06/11 01:11:38;;;;;;;7.33;4.90;;;;;;;15.83;100.00;96253.00;5092684;28;20205;-84
2021/06/11 01:14:08;;;;;;;4.77;4.47;;;;;;;15.71;100.00;96260.66;5092387;28;20210;-83
2021/06/11 01:16:36;;;;;;;4.37;4.07;;;;;;;15.73;100.00;96263.94;5092306;28;20212;-84
2021/06/11 01:19:04;;;;;;;4.53;4.23;;;;;;;15.77;100.00;96259.09;5092316;28;20206;-84
2021/06/11 01:21:32;;;;;;;4.10;3.80;;;;;;;15.77;100.00;96249.31;5092534;28;20198;-83
2021/06/11 01:24:13;;;;;;;4.00;3.70;;;;;;;15.77;100.00;96251.13;5092150;28;20805;-84
2021/06/11 01:26:43;;;;;;;4.67;4.37;;;;;;;15.71;100.00;96252.72;5092531;28;20581;-83
2021/06/11 01:29:13;;;;;;;3.90;3.60;;;;;;;15.64;100.00;96257.09;5092164;28;20182;-84
2021/06/11 01:31:43;;;;;;;4.23;3.90;;;;;;;15.64;100.00;96247.31;5092238;28;20201;-83
2021/06/11 01:34:15;;;;;;;4.50;4.00;;;;;;;15.53;100.00;96249.66;5092195;28;20694;-84
2021/06/11 01:36:47;;;;;;;4.27;3.80;;;;;;;15.52;100.00;96248.00;5092305;28;20177;-84
2021/06/11 01:39:17;;;;;;;4.20;3.80;;;;;;;15.54;100.00;96249.47;5091990;28;20182;-84
2021/06/11 01:41:47;;;;;;;4.10;3.73;;;;;;;15.67;100.00;96246.97;5092203;28;20194;-84
2021/06/11 01:44:17;;;;;;;5.77;3.70;;;;;;;15.71;100.00;96247.41;5091789;28;20205;-84
2021/06/11 01:46:46;;;;;;;3.50;3.27;;;;;;;15.85;100.00;96245.69;5092093;28;20225;-84
2021/06/11 01:49:14;;;;;;;4.53;3.93;;;;;;;15.91;100.00;96250.22;5091922;28;20668;-84
2021/06/11 01:51:43;;;;;;;8.83;4.10;;;;;;;15.90;100.00;96257.34;5092366;28;20224;-83
2021/06/11 01:54:12;;;;;;;3.50;3.30;;;;;;;15.95;100.00;96255.97;5091415;28;20655;-84
2021/06/11 01:56:40;;;;;;;4.87;3.97;;;;;;;15.99;100.00;96265.97;5092146;28;20199;-83
2021/06/11 01:59:10;;;;;;;4.30;3.37;;;;;;;16.03;100.00;96269.88;5092024;28;20198;-84
2021/06/11 02:01:37;;;;;;;4.60;4.10;;;;;;;15.96;100.00;96281.44;5096013;28;20283;-84
2021/06/11 02:04:06;;;;;;;4.10;3.80;;;;;;;16.03;100.00;96288.44;5096105;28;20605;-84
2021/06/11 02:06:34;;;;;;;3.70;3.40;;;;;;;16.00;100.00;96296.75;5096116;28;20311;-83
2021/06/11 02:09:02;;;;;;;4.00;3.30;;;;;;;16.03;100.00;96308.81;5095986;28;20208;-84
2021/06/11 02:11:29;;;;;;;3.97;2.90;;;;;;;16.04;100.00;96310.50;5096164;28;20196;-84
2021/06/11 02:13:58;;;;;;;3.83;3.13;;;;;;;15.95;100.00;96314.28;5095822;28;20551;-84
2021/06/11 02:16:29;;;;;;;4.13;3.83;;;;;;;16.02;100.00;96331.88;5095944;28;20199;-84
2021/06/11 02:18:59;;;;;;;2.90;2.70;;;;;;;15.97;100.00;96333.44;5096077;28;20194;-83
2021/06/11 02:21:27;;;;;;;3.87;3.57;;;;;;;15.34;100.00;96363.13;5095899;28;20177;-83
2021/06/11 02:23:54;;;;;;;3.60;3.30;;;;;;;15.19;100.00;96362.34;5095623;28;20345;-83
2021/06/11 02:26:22;;;;;;;5.83;3.43;;;;;;;14.95;100.00;96361.66;5095838;28;20216;-83
2021/06/11 02:28:50;;;;;;;3.80;3.50;;;;;;;14.96;100.00;96343.94;5095624;28;20200;-83
2021/06/11 02:31:18;;;;;;;4.33;4.03;;;;;;;15.03;100.00;96325.50;5095888;28;20193;-83
2021/06/11 02:33:47;;;;;;;4.33;4.03;;;;;;;15.18;100.00;96313.88;5095362;28;20200;-83
2021/06/11 02:36:14;;;;;;;3.40;3.20;;;;;;;14.98;100.00;96308.34;5095612;28;20204;-83
2021/06/11 02:38:41;;;;;;;3.70;3.40;;;;;;;14.81;100.00;96304.25;5095308;28;20741;-83
2021/06/11 02:41:11;;;;;;;3.93;3.63;;;;;;;14.80;100.00;96296.53;5095454;28;20553;-83
2021/06/11 02:43:42;;;;;;;3.60;3.40;;;;;;;14.76;100.00;96296.06;5095656;28;20192;-83
2021/06/11 02:46:15;;;;;;;3.87;3.40;;;;;;;14.94;100.00;96293.03;5095417;28;20209;-83
2021/06/11 02:48:49;;;;;;;9.00;8.07;;;;;;;15.03;100.00;96285.78;5095259;28;20185;-83
2021/06/11 02:51:25;;;;;;;6.93;6.33;;;;;;;14.97;100.00;96285.53;5095272;28;20188;-83
2021/06/11 02:53:53;;;;;;;6.40;5.90;;;;;;;15.01;100.00;96293.94;5094963;28;20231;-83
2021/06/11 02:56:30;;;;;;;9.93;9.03;;;;;;;15.09;100.00;96288.53;5095331;28;20195;-83
2021/06/11 02:59:03;;;;;;;4.83;4.43;;;;;;;14.90;100.00;96295.22;5094937;28;20203;-83
2021/06/11 03:01:35;;;;;;;7.63;5.73;;;;;;;14.96;100.00;96288.34;5095213;28;20189;-83
2021/06/11 03:04:09;;;;;;;6.53;5.97;;;;;;;14.99;100.00;96293.28;5095248;28;20562;-83
2021/06/11 03:06:37;;;;;;;6.00;5.33;;;;;;;15.01;100.00;96290.47;5094068;28;20208;-82
2021/06/11 03:09:08;;;;;;;5.20;4.70;;;;;;;15.02;100.00;96292.09;5073169;28;20271;-83
2021/06/11 03:11:40;;;;;;;4.07;3.73;;;;;;;15.06;100.00;96291.53;5073835;28;20189;-83
2021/06/11 03:14:09;;;;;;;4.27;3.97;;;;;;;15.10;100.00;96294.63;5074459;28;20542;-84
2021/06/11 03:16:37;;;;;;;4.07;3.63;;;;;;;14.95;100.00;96310.53;5073237;28;20254;-84
2021/06/11 03:19:10;;;;;;;4.10;3.23;;;;;;;14.90;100.00;96297.88;5073611;28;20201;-84
2021/06/11 03:21:40;;;;;;;4.57;3.67;;;;;;;14.92;100.00;96306.44;5073409;28;20186;-85
2021/06/11 03:24:12;;;;;;;6.87;3.87;;;;;;;14.93;100.00;96299.34;5073848;28;20231;-85
2021/06/11 03:26:46;;;;;;;4.23;3.83;;;;;;;14.98;100.00;96296.94;5073570;28;20584;-84
2021/06/11 03:29:16;;;;;;;3.73;3.50;;;;;;;15.14;100.00;96296.75;5073547;28;20246;-84
2021/06/11 03:31:48;;;;;;;4.27;3.97;;;;;;;15.05;100.00;96305.78;5073432;28;20247;-84
2021/06/11 03:34:21;;;;;;;4.00;3.70;;;;;;;15.13;100.00;96302.19;5073868;28;20216;-85
2021/06/11 03:36:50;;;;;;;9.00;3.73;;;;;;;15.12;100.00;96311.16;5073997;28;20186;-85
2021/06/11 03:39:24;;;;;;;3.90;3.60;;;;;;;15.06;100.00;96309.25;5073660;28;20213;-84
2021/06/11 03:41:52;;;;;;;3.50;3.30;;;;;;;14.98;100.00;96318.94;5089317;28;20197;-84
2021/06/11 03:44:20;;;;;;;4.00;3.70;;;;;;;15.08;100.00;96320.47;5093080;28;20192;-84
2021/06/11 03:46:49;;;;;;;3.37;3.07;;;;;;;15.07;100.00;96317.03;5092999;28;20225;-83
2021/06/11 03:49:19;;;;;;;4.07;3.50;;;;;;;15.19;100.00;96314.69;5092903;28;20201;-84
2021/06/11 03:51:47;;;;;;;6.77;3.40;;;;;;;15.25;100.00;96315.78;5093329;28;20176;-83
2021/06/11 03:54:16;;;;;;;3.63;3.33;;;;;;;15.52;100.00;96308.94;5092820;28;20234;-82
2021/06/11 03:56:45;;;;;;;5.03;4.67;;;;;;;15.49;100.00;96317.28;5092995;28;20758;-83
2021/06/11 03:59:15;;;;;;;5.73;5.23;;;;;;;15.60;100.00;96311.47;5092634;28;20202;-83
2021/06/11 04:01:47;;;;;;;4.60;4.30;;;;;;;15.76;100.00;96321.03;5093043;28;20204;-83
2021/06/11 04:04:15;;;;;;;5.53;4.37;;;;;;;15.77;100.00;96320.03;5092834;28;20186;-83
2021/06/11 04:06:47;;;;;;;3.97;3.67;;;;;;;15.86;100.00;96321.53;5092853;28;20224;-83
2021/06/11 04:09:18;;;;;;;4.73;4.33;;;;;;;15.92;100.00;96310.16;5092121;28;20925;-84
2021/06/11 04:11:49;;;;;;;4.30;3.90;;;;;;;15.89;100.00;96324.63;5094016;28;20196;-83
2021/06/11 04:14:23;;;;;;;4.47;4.07;;;;;;;15.93;100.00;96317.94;5093760;28;20196;-84
2021/06/11 04:16:53;;;;;;;4.17;3.73;;;;;;;16.13;100.00;96314.63;5094096;28;20712;-83
2021/06/11 04:19:25;;;;;;;3.83;3.20;;;;;;;16.19;100.00;96319.16;5093284;28;20289;-83
2021/06/11 04:21:56;;;;;;;3.77;3.47;;;;;;;16.27;100.00;96321.66;5093996;28;20180;-83
2021/06/11 04:24:29;;;;;;;3.43;3.13;;;;;;;16.19;100.00;96340.38;5092789;28;20566;-83
2021/06/11 04:26:57;;;;;;;4.20;3.80;;;;;;;16.30;100.00;96352.28;5093519;28;20689;-83
2021/06/11 04:29:27;;;;;;;5.00;3.40;;;;;;;16.38;100.00;96354.78;5093003;28;20201;-83
2021/06/11 04:31:54;;;;;;;3.40;3.10;;;;;;;16.38;100.00;96363.59;5093495;28;20311;-83
2021/06/11 04:34:24;;;;;;;3.63;3.30;;;;;;;16.41;100.00;96373.78;5093217;28;20577;-84
2021/06/11 04:36:54;;;;;;;4.33;4.03;;;;;;;16.57;100.00;96385.97;5093308;28;20235;-84
2021/06/11 04:39:21;;;;;;;3.93;3.63;;;;;;;16.61;100.00;96395.16;5093057;28;20254;-83
2021/06/11 04:41:48;;;;;;;3.50;3.30;;;;;;;16.67;100.00;96398.09;5093409;28;20197;-83
2021/06/11 04:44:16;;;;;;;3.53;3.23;;;;;;;16.72;100.00;96409.75;5093037;28;20210;-83
2021/06/11 04:46:42;;;;;;;4.13;3.83;;;;;;;16.81;100.00;96411.28;5093075;28;20223;-83
2021/06/11 04:49:10;;;;;;;4.23;3.93;;;;;;;16.86;100.00;96413.34;5092768;28;20200;-83
2021/06/11 04:51:37;;;;;;;4.30;3.80;;;;;;;16.94;100.00;96422.97;5093400;28;20199;-83
2021/06/11 04:54:07;;;;;;;3.80;3.57;;;;;;;17.06;100.00;96421.44;5092542;28;20235;-84
2021/06/11 04:56:34;;;;;;;4.03;3.63;;;;;;;17.13;100.00;96419.63;5092996;28;20676;-83
2021/06/11 04:59:02;;;;;;;3.87;3.57;;;;;;;17.22;100.00;96423.78;5092683;28;20206;-83
2021/06/11 05:01:29;;;;;;;3.27;3.07;;;;;;;17.47;100.00;96439.22;5092978;28;20257;-83
2021/06/11 05:03:56;;;;;;;5.13;3.57;;;;;;;17.51;100.00;96448.44;5092714;28;20206;-83
2021/06/11 05:06:24;;;;;;;3.43;3.13;;;;;;;17.47;100.00;96463.97;5092889;28;20314;-83
2021/06/11 05:08:51;;;;;;;5.27;3.70;;;;;;;17.47;100.00;96471.13;5093108;28;20611;-83
2021/06/11 05:11:19;;;;;;;3.83;3.53;;;;;;;17.49;100.00;96477.88;5092621;28;20577;-84
2021/06/11 05:13:46;;;;;;;3.77;3.53;;;;;;;17.67;100.00;96487.16;5092888;28;20200;-83
2021/06/11 05:16:13;;;;;;;4.33;3.97;;;;;;;17.60;100.00;96489.78;5092631;28;20199;-84
2021/06/11 05:18:40;;;;;;;4.50;4.20;;;;;;;17.72;100.00;96496.16;5092323;28;20204;-83
2021/06/11 05:21:07;;;;;;;4.10;3.80;;;;;;;17.87;100.00;96495.22;5092664;28;20247;-83
2021/06/11 05:23:35;;;;;;;4.53;4.03;;;;;;;17.92;100.00;96509.56;5092440;28;20619;-83
2021/06/11 05:26:02;;;;;;;5.10;4.63;;;;;;;17.94;100.00;96520.00;5092432;28;20230;-83
2021/06/11 05:28:30;;;;;;;4.40;4.00;;;;;;;17.94;100.00;96527.97;5092123;28;20287;-83
2021/06/11 05:30:57;;;;;;;4.33;3.93;;;;;;;18.10;100.00;96545.44;5092401;28;20196;-84
2021/06/11 05:33:25;;;;;;;3.90;3.70;;;;;;;18.05;100.00;96546.06;5092733;28;20273;-83
2021/06/11 05:35:52;;;;;;;4.33;4.03;;;;;;;17.99;100.00;96560.13;5092119;28;20241;-83
2021/06/11 05:38:20;;;;;;;7.90;4.40;;;;;;;18.03;100.00;96564.03;5092368;28;20192;-83
2021/06/11 05:40:47;;;;;;;5.03;4.67;;;;;;;18.16;100.00;96569.41;5092374;28;20196;-84
2021/06/11 05:43:14;;;;;;;5.00;4.50;;;;;;;18.32;100.00;96567.41;5092243;28;20196;-83
2021/06/11 05:45:43;;;;;;;5.17;4.80;;;;;;;18.32;100.00;96573.53;5092045;28;20224;-83
2021/06/11 05:48:10;;;;;;;4.40;4.10;;;;;;;18.45;100.00;96573.59;5092485;28;20200;-84
2021/06/11 05:50:37;;;;;;;4.70;4.37;;;;;;;18.61;100.00;96564.44;5091969;28;20207;-84
2021/06/11 05:53:05;;;;;;;5.27;4.60;;;;;;;18.73;100.00;96554.03;5092504;28;20196;-84
2021/06/11 05:55:32;;;;;;;4.23;3.93;;;;;;;18.90;100.00;96554.47;5090776;28;20307;-84
2021/06/11 05:57:59;;;;;;;4.77;4.30;;;;;;;19.11;100.00;96554.25;5092232;28;20200;-84
2021/06/11 06:00:26;;;;;;;5.63;4.33;;;;;;;19.20;100.00;96581.53;5091766;28;20202;-84
2021/06/11 06:02:55;;;;;;;4.87;4.47;;;;;;;19.25;100.00;96605.69;5092266;28;20196;-83
2021/06/11 06:05:22;;;;;;;4.97;4.57;;;;;;;19.36;100.00;96634.44;5091875;28;20200;-83
2021/06/11 06:07:49;;;;;;;4.57;4.17;;;;;;;19.41;100.00;96639.94;5092240;28;20242;-84
2021/06/11 06:10:16;;;;;;;5.33;4.50;;;;;;;19.59;100.00;96660.66;5090638;28;20196;-83
2021/06/11 06:12:43;;;;;;;4.63;4.33;;;;;;;19.76;100.00;96676.28;5090513;28;20196;-83
2021/06/11 06:15:11;;;;;;;5.67;4.40;;;;;;;19.98;100.00;96688.34;5091883;28;20196;-84
2021/06/11 06:17:39;;;;;;;5.87;5.27;;;;;;;20.31;100.00;96663.44;5091970;28;20253;-84
2021/06/11 06:20:09;;;;;;;4.73;4.40;;;;;;;20.59;100.00;96672.00;5091835;28;20283;-84
2021/06/11 06:22:37;;;;;;;5.20;4.80;;;;;;;20.78;100.00;96664.94;5092038;28;20181;-84
2021/06/11 06:25:05;;;;;;;9.00;5.50;;;;;;;20.92;100.00;96680.88;5091773;28;20273;-84
2021/06/11 06:27:32;;;;;;;5.63;4.93;;;;;;;21.29;100.00;96696.06;5092169;28;20599;-84
2021/06/11 06:29:59;;;;;;;4.57;4.17;;;;;;;21.66;100.00;96664.16;5091697;28;20192;-84
2021/06/11 06:32:29;;;;;;;4.90;4.50;;;;;;;21.98;100.00;96669.44;5092241;28;20582;-84
2021/06/11 06:34:56;;;;;;;4.37;4.00;;;;;;;22.17;100.00;96654.22;5091577;28;20229;-84
2021/06/11 06:37:24;;;;;;;3.90;3.60;;;;;;;22.13;100.00;96623.56;5091862;28;20677;-84
2021/06/11 06:39:52;;;;;;;4.17;3.87;;;;;;;22.35;100.00;96627.47;5091602;28;20287;-84
2021/06/11 06:42:19;;;;;;;3.93;3.70;;;;;;;22.29;100.00;96604.25;5091812;28;20192;-84
2021/06/11 06:44:46;;;;;;;4.67;3.67;;;;;;;22.44;100.00;96595.84;5091542;28;20192;-84
2021/06/11 06:47:13;;;;;;;5.33;3.90;;;;;;;22.73;100.00;96615.66;5093166;28;20220;-84
2021/06/11 06:49:40;;;;;;;4.47;4.07;;;;;;;22.79;100.00;96602.19;5095459;28;20195;-84
2021/06/11 06:52:08;;;;;;;3.97;3.50;;;;;;;22.99;100.00;96591.19;5095940;28;20197;-84
2021/06/11 06:54:37;;;;;;;4.13;3.73;;;;;;;23.01;100.00;96585.59;5095157;28;20243;-84
2021/06/11 06:57:04;;;;;;;4.23;3.93;;;;;;;23.11;100.00;96568.97;5094965;28;20275;-84
2021/06/11 06:59:31;;;;;;;6.27;3.63;;;;;;;22.94;100.00;96583.03;5095306;28;20303;-84
2021/06/11 07:02:00;;;;;;;5.77;3.90;;;;;;;23.00;100.00;96625.00;5095182;28;20282;-85
2021/06/11 07:04:27;;;;;;;4.03;3.73;;;;;;;22.85;100.00;96627.22;5094946;28;20586;-84
2021/06/11 07:06:54;;;;;;;3.83;3.53;;;;;;;23.16;100.00;96620.84;5094953;28;20257;-84
2021/06/11 07:09:21;;;;;;;3.83;3.53;;;;;;;23.34;100.00;96603.84;5094862;28;20246;-84
2021/06/11 07:11:51;;;;;;;8.10;4.13;;;;;;;23.72;100.00;96570.41;5095047;28;20203;-84
2021/06/11 07:14:19;;;;;;;3.83;3.63;;;;;;;23.58;100.00;96577.84;5094529;28;20193;-84
2021/06/11 07:16:48;;;;;;;17.87;4.77;;;;;;;23.55;100.00;96581.00;5094772;28;20253;-84
2021/06/11 07:19:15;;;;;;;4.00;3.67;;;;;;;23.56;100.00;96592.56;5094682;28;20200;-84
2021/06/11 07:21:42;;;;;;;4.10;3.17;;;;;;;22.94;100.00;96501.81;5094679;28;20199;-84
2021/06/11 07:24:10;;;;;;;4.17;3.23;;;;;;;23.11;100.00;96542.97;5094605;28;20251;-84
2021/06/11 07:26:37;;;;;;;3.70;3.13;;;;;;;23.01;100.00;96554.25;5094561;28;20223;-84
2021/06/11 07:29:06;;;;;;;4.17;3.53;;;;;;;22.94;100.00;96537.47;5094445;28;20685;-84
2021/06/11 07:31:33;;;;;;;4.87;3.43;;;;;;;23.42;100.00;96543.69;5094239;28;20717;-84
2021/06/11 07:34:01;;;;;;;3.63;3.43;;;;;;;23.86;100.00;96534.22;5094321;28;20192;-84
2021/06/11 07:36:28;;;;;;;5.30;3.87;;;;;;;23.91;100.00;96504.00;5094774;28;20218;-84
2021/06/11 07:38:55;;;;;;;4.30;3.40;;;;;;;23.58;100.00;96481.25;5094367;28;20207;-84
2021/06/11 07:41:22;;;;;;;4.03;3.73;;;;;;;23.80;100.00;96505.66;5094459;28;20193;-84
2021/06/11 07:43:50;;;;;;;4.13;3.67;;;;;;;23.92;100.00;96460.81;5094352;28;20207;-85
2021/06/11 07:46:19;;;;;;;6.13;2.87;;;;;;;23.44;100.00;96443.16;5094416;28;20223;-84
2021/06/11 07:48:46;;;;;;;4.27;3.90;;;;;;;23.96;100.00;96471.88;5094134;28;20257;-83
2021/06/11 07:51:14;;;;;;;3.70;3.47;;;;;;;24.33;100.00;96501.88;5094568;28;20279;-84
2021/06/11 07:53:42;;;;;;;3.47;3.20;;;;;;;24.46;100.00;96459.69;5093746;28;20322;-84
2021/06/11 07:56:09;;;;;;;6.83;3.40;;;;;;;24.60;100.00;96434.16;5094236;28;20617;-84
2021/06/11 07:58:36;;;;;;;4.10;3.73;;;;;;;23.96;100.00;96453.91;5093965;28;20245;-84
2021/06/11 08:01:03;;;;;;;5.30;4.90;;;;;;;24.20;100.00;96468.06;5093885;28;20252;-84
2021/06/11 08:03:32;;;;;;;7.40;6.70;;;;;;;24.81;100.00;96475.59;5094105;28;20196;-84
2021/06/11 08:05:59;;;;;;;5.73;3.57;;;;;;;24.36;100.00;96442.31;5093900;28;20228;-85
2021/06/11 08:08:26;;;;;;;3.67;3.37;;;;;;;24.74;100.00;96472.28;5093746;28;20687;-83
2021/06/11 08:10:53;;;;;;;5.77;4.10;;;;;;;24.83;100.00;96473.47;5093571;28;20583;-84
2021/06/11 08:13:20;;;;;;;4.07;3.53;;;;;;;24.64;100.00;96484.47;5093782;28;20199;-83
2021/06/11 08:15:48;;;;;;;3.87;3.60;;;;;;;24.49;100.00;96499.50;5093772;28;20200;-85
2021/06/11 08:18:15;;;;;;;5.13;4.00;;;;;;;23.39;100.00;96504.75;5093700;28;20683;-84
2021/06/11 08:20:43;;;;;;;4.70;3.37;;;;;;;23.52;100.00;96540.41;5093525;28;20249;-85
2021/06/11 08:23:10;;;;;;;3.87;3.67;;;;;;;23.22;100.00;96552.06;5093828;28;20197;-85
2021/06/11 08:25:38;;;;;;;4.13;3.83;;;;;;;23.37;100.00;96581.91;5093122;28;20253;-85
2021/06/11 08:28:05;;;;;;;3.70;3.37;;;;;;;23.07;100.00;96538.28;5093342;28;20287;-84
2021/06/11 08:30:33;;;;;;;4.37;4.07;;;;;;;22.98;100.00;96530.59;5093116;28;20203;-84
2021/06/11 08:33:00;;;;;;;3.80;3.60;;;;;;;23.22;100.00;96541.34;5093323;28;20192;-84
2021/06/11 08:35:28;;;;;;;3.30;3.10;;;;;;;24.05;100.00;96536.78;5093438;28;20732;-84
2021/06/11 08:37:56;;;;;;;4.13;3.80;;;;;;;23.89;100.00;96531.06;5093212;28;20200;-84
2021/06/11 08:40:24;;;;;;;4.80;3.60;;;;;;;24.05;100.00;96507.22;5092999;28;20196;-84
2021/06/11 08:42:51;;;;;;;4.17;3.87;;;;;;;23.78;100.00;96502.38;5093198;28;20196;-84
2021/06/11 08:45:19;;;;;;;5.10;4.00;;;;;;;23.66;100.00;96504.25;5092894;28;20200;-84
2021/06/11 08:47:49;;;;;;;5.37;3.83;;;;;;;23.79;100.00;96549.63;5092967;28;20220;-84
2021/06/11 08:50:20;;;;;;;3.60;3.30;;;;;;;23.74;100.00;96525.38;5092959;28;20680;-84
2021/06/11 08:52:47;;;;;;;4.20;3.90;;;;;;;23.81;100.00;96569.00;5092994;28;20267;-85
2021/06/11 08:55:16;;;;;;;4.87;3.90;;;;;;;23.71;100.00;96568.78;5092653;28;20220;-84
2021/06/11 08:57:44;;;;;;;4.40;3.97;;;;;;;23.58;100.00;96564.44;5092848;28;20196;-84
2021/06/11 09:00:12;;;;;;;4.23;3.77;;;;;;;23.31;100.00;96563.25;5092464;28;20205;-84
2021/06/11 09:03:09;;;;;;;5.67;4.47;;;;;;;22.92;100.00;96578.91;5092799;28;20200;-84
2021/06/11 09:05:37;;;;;;;4.63;3.17;;;;;;;22.90;100.00;96563.06;5092519;28;20193;-84
2021/06/11 09:08:15;;;;;;;4.07;3.33;;;;;;;22.80;100.00;96576.19;5092626;28;20581;-84
2021/06/11 09:10:45;;;;;;;3.57;3.27;;;;;;;22.50;100.00;96552.91;5092034;28;20550;-84
2021/06/11 09:13:21;;;;;;;4.90;3.40;;;;;;;22.20;100.00;96533.31;5092526;28;20200;-84
2021/06/11 09:15:48;;;;;;;4.47;4.07;;;;;;;22.36;100.00;96539.91;5092443;28;20249;-84
2021/06/11 09:18:24;;;;;;;3.70;3.30;;;;;;;22.31;100.00;96520.00;5092494;28;20203;-84
2021/06/11 09:20:51;;;;;;;3.37;3.07;;;;;;;22.23;100.00;96514.13;5092350;28;20207;-84
2021/06/11 09:23:19;;;;;;;3.80;3.50;;;;;;;22.21;100.00;96526.94;5092117;28;20207;-84
2021/06/11 09:25:49;;;;;;;3.83;3.43;;;;;;;22.39;100.00;96523.41;5092471;28;20586;-84
2021/06/11 09:28:18;;;;;;;3.93;3.20;;;;;;;22.59;100.00;96531.16;5092893;28;20215;-83
2021/06/11 09:30:53;;;;;;;3.53;3.23;;;;;;;22.88;100.00;96546.38;5091913;28;20196;-84
2021/06/11 09:33:22;;;;;;;4.03;3.53;;;;;;;22.98;100.00;96551.22;5092338;28;20184;-84
2021/06/11 09:35:52;;;;;;;4.77;3.73;;;;;;;23.13;100.00;96527.44;5092099;28;20688;-84
2021/06/11 09:38:22;;;;;;;3.53;3.33;;;;;;;23.15;100.00;96546.00;5092186;28;20196;-83
2021/06/11 09:41:07;;;;;;;3.80;3.47;;;;;;;23.20;100.00;96546.09;5092222;28;20562;-84
2021/06/11 09:43:35;;;;;;;4.13;3.77;;;;;;;23.08;100.00;96537.25;5091981;28;20199;-83
2021/06/11 09:46:04;;;;;;;3.93;3.60;;;;;;;23.10;100.00;96576.16;5092059;28;20259;-83
2021/06/11 09:48:41;;;;;;;4.07;3.77;;;;;;;23.05;100.00;96585.97;5091736;28;20200;-83
2021/06/11 09:51:15;;;;;;;3.73;3.40;;;;;;;22.92;100.00;96594.97;5092219;28;20188;-84
2021/06/11 09:53:42;;;;;;;7.67;3.60;;;;;;;22.67;100.00;96595.94;5091563;28;20244;-84
2021/06/11 09:56:21;;;;;;;4.93;3.83;;;;;;;22.33;100.00;96645.59;5092095;28;20257;-84
2021/06/11 09:58:50;;;;;;;3.90;3.60;;;;;;;22.21;100.00;96684.91;5092092;28;20275;-83
2021/06/11 10:01:17;;;;;;;3.90;3.60;;;;;;;22.01;100.00;96701.94;5092228;28;20223;-84
2021/06/11 10:03:46;;;;;;;4.30;3.97;;;;;;;21.63;100.00;96727.97;5091908;28;20242;-84
2021/06/11 10:06:15;;;;;;;4.20;3.50;;;;;;;21.14;100.00;96735.66;5092077;28;20224;-83
2021/06/11 10:08:45;;;;;;;3.90;3.63;;;;;;;20.86;100.00;96757.38;5092204;28;20729;-84
2021/06/11 10:11:13;;;;;;;4.70;3.40;;;;;;;20.75;100.00;96763.34;5092013;28;20200;-83
2021/06/11 10:13:42;;;;;;;3.53;3.23;;;;;;;20.52;100.00;96751.31;5091915;28;20196;-83
2021/06/11 10:16:11;;;;;;;2.70;2.50;;;;;;;20.31;100.00;96728.31;5092189;28;20188;-84
2021/06/11 10:18:38;;;;;;;3.87;3.00;;;;;;;20.07;100.00;96702.31;5091745;28;20249;-83
2021/06/11 10:21:07;;;;;;;4.40;2.77;;;;;;;19.67;100.00;96684.50;5092990;28;20688;-84
2021/06/11 10:23:34;;;;;;;2.27;2.17;;;;;;;19.45;100.00;96691.81;5096203;28;20278;-83
2021/06/11 10:26:04;;;;;;;6.23;3.00;;;;;;;19.37;100.00;96716.03;5095693;28;20203;-83
2021/06/11 10:28:36;;;;;;;8.40;3.23;;;;;;;18.86;100.00;96771.63;5096033;28;20577;-83
2021/06/11 10:31:07;;;;;;;3.40;2.77;;;;;;;18.85;100.00;96828.56;5095504;28;20191;-84
2021/06/11 10:33:51;;;;;;;3.53;2.70;;;;;;;18.94;100.00;96884.13;5095973;28;20193;-83
2021/06/11 10:36:42;;;;;;;3.10;2.90;;;;;;;18.52;100.00;96930.28;5095768;28;20196;-84
2021/06/11 10:39:29;;;;;;;3.30;2.97;;;;;;;18.29;100.00;96987.22;5091878;28;20612;-84
2021/06/11 10:42:08;;;;;;;3.37;3.07;;;;;;;17.90;100.00;97038.13;5095711;28;20201;-84
2021/06/11 10:44:43;;;;;;;3.93;3.33;;;;;;;17.70;100.00;97098.16;5095423;28;20185;-84
2021/06/11 10:47:29;;;;;;;8.20;3.50;;;;;;;17.48;100.00;97137.09;5095429;28;20208;-85
2021/06/11 10:50:20;;;;;;;6.57;5.50;;;;;;;17.25;100.00;97171.66;5095101;28;20818;-84
2021/06/11 10:52:50;;;;;;;5.93;4.80;;;;;;;17.29;100.00;97088.78;5095650;28;20184;-85
2021/06/11 10:55:46;;;;;;;5.03;3.97;;;;;;;17.33;100.00;96920.03;5094976;28;20704;-85
2021/06/11 10:58:28;;;;;;;6.40;4.03;;;;;;;17.18;100.00;96764.31;5095389;28;20189;-84
2021/06/11 11:00:55;;;;;;;3.57;3.27;;;;;;;16.93;100.00;96658.44;5095308;28;20196;-85
2021/06/11 11:03:41;;;;;;;5.10;3.90;;;;;;;16.90;100.00;96552.63;5095134;28;20203;-84
2021/06/11 11:09:18;;;;;;;7.40;6.53;;;;;;;16.96;100.00;96407.69;5306909;22;20244;-83
2021/06/11 11:11:47;;;;;;;7.53;6.77;;;;;;;16.92;100.00;96363.97;5118585;27;20229;-84
2021/06/11 11:14:40;;;;;;;7.10;4.43;;;;;;;16.83;100.00;96320.81;5115041;28;20199;-84
2021/06/11 11:17:08;;;;;;;5.27;3.70;;;;;;;16.78;100.00;96294.88;5115498;28;20246;-84
2021/06/11 11:19:55;;;;;;;5.37;4.57;;;;;;;16.73;100.00;96269.91;5115103;28;20209;-85
2021/06/11 11:22:31;;;;;;;3.90;3.20;;;;;;;16.47;100.00;96286.50;5115113;28;20180;-84
2021/06/11 11:24:58;;;;;;;5.10;3.53;;;;;;;16.37;100.00;96285.00;5114883;28;20191;-84
2021/06/11 11:27:26;;;;;;;5.17;3.43;;;;;;;16.37;100.00;96263.78;5114839;28;20719;-84
2021/06/11 11:29:53;;;;;;;5.13;4.50;;;;;;;16.33;100.00;96257.25;5114622;28;20198;-84
2021/06/11 11:32:21;;;;;;;3.60;3.30;;;;;;;16.33;100.00;96246.63;5114234;28;20198;-84
2021/06/11 11:34:48;;;;;;;5.00;3.83;;;;;;;16.25;100.00;96254.75;5114721;28;20203;-84
2021/06/11 11:37:16;;;;;;;3.97;3.60;;;;;;;16.34;100.00;96256.22;5114546;28;20198;-84